createdAt,value
2023-11-01T00:00:40.171Z,99417.53
2023-11-01T00:05:42.183Z,99415.22
2023-11-01T00:10:43.895Z,99412.75
2023-11-01T00:15:45.615Z,99418.31
2023-11-01T00:20:47.383Z,99426.63
2023-11-01T00:25:49.142Z,99430.53
2023-11-01T00:30:50.808Z,99428.97
2023-11-01T00:35:52.537Z,99426.09
2023-11-01T00:40:54.243Z,99432.53
2023-11-01T00:45:55.980Z,99433.00
2023-11-01T00:50:57.646Z,99427.59
2023-11-01T00:55:59.380Z,99434.88
2023-11-01T01:01:01.581Z,99437.56
2023-11-01T01:06:04.334Z,99438.38
2023-11-01T01:11:06.167Z,99442.22
2023-11-01T01:16:08.373Z,99439.19
2023-11-01T01:21:10.109Z,99434.75
2023-11-01T01:26:11.862Z,99428.09
2023-11-01T01:31:13.690Z,99425.75
2023-11-01T01:36:15.409Z,99419.34
2023-11-01T01:41:17.260Z,99417.66
2023-11-01T01:46:19.361Z,99415.50
2023-11-01T01:51:22.637Z,99414.00
2023-11-01T01:56:25.773Z,99416.72
2023-11-01T02:01:39.162Z,99417.25
2023-11-01T02:06:46.430Z,99413.41
2023-11-01T02:11:48.147Z,99409.03
2023-11-01T02:16:51.228Z,99413.41
2023-11-01T02:21:52.956Z,99422.16
2023-11-01T02:26:54.644Z,99417.44
2023-11-01T02:31:56.297Z,99415.22
2023-11-01T02:36:57.979Z,99413.16
2023-11-01T02:42:00.548Z,99418.25
2023-11-01T02:47:02.540Z,99398.97
2023-11-01T02:52:04.470Z,99416.50
2023-11-01T02:57:06.542Z,99411.78
2023-11-01T03:02:08.277Z,99401.16
2023-11-01T03:07:09.945Z,99403.00
2023-11-01T03:12:11.664Z,99419.22
2023-11-01T03:17:13.590Z,99429.19
2023-11-01T03:22:15.394Z,99421.06
2023-11-01T03:27:17.028Z,99414.13
2023-11-01T03:32:19.045Z,99421.31
2023-11-01T03:37:20.768Z,99422.94
2023-11-01T03:42:23.101Z,99418.00
2023-11-01T03:47:25.103Z,99427.81
2023-11-01T03:52:27.691Z,99423.06
2023-11-01T03:57:29.388Z,99429.66
2023-11-01T04:02:31.349Z,99421.06
2023-11-01T04:07:33.068Z,99414.34
2023-11-01T04:12:34.710Z,99418.44
2023-11-01T04:17:36.402Z,99419.47
2023-11-01T04:22:38.854Z,99418.50
2023-11-01T04:27:43.378Z,99419.41
2023-11-01T04:32:45.125Z,99427.19
2023-11-01T04:37:46.984Z,99415.03
2023-11-01T04:42:49.229Z,99418.94
2023-11-01T04:47:51.038Z,99415.38
2023-11-01T04:52:53.164Z,99416.22
2023-11-01T04:57:54.814Z,99415.22
2023-11-01T05:02:56.620Z,99423.31
2023-11-01T05:07:58.354Z,99413.34
2023-11-01T05:13:00.101Z,99426.34
2023-11-01T05:18:01.957Z,99416.88
2023-11-01T05:23:03.777Z,99408.59
2023-11-01T05:28:05.542Z,99405.41
2023-11-01T05:33:07.386Z,99408.28
2023-11-01T05:38:09.090Z,99427.69
2023-11-01T05:43:10.724Z,99421.25
2023-11-01T05:48:12.506Z,99417.72
2023-11-01T05:53:14.174Z,99426.28
2023-11-01T05:58:15.876Z,99425.94
2023-11-01T06:03:17.747Z,99426.41
2023-11-01T06:08:19.659Z,99427.94
2023-11-01T06:13:22.020Z,99425.69
2023-11-01T06:18:23.796Z,99435.31
2023-11-01T06:23:26.110Z,99436.34
2023-11-01T06:28:27.964Z,99440.59
2023-11-01T06:33:29.711Z,99450.91
2023-11-01T06:38:31.477Z,99442.31
2023-11-01T06:43:33.236Z,99442.19
2023-11-01T06:48:35.013Z,99448.97
2023-11-01T06:53:36.740Z,99451.50
2023-11-01T06:58:38.457Z,99443.47
2023-11-01T07:03:40.306Z,99452.25
2023-11-01T07:08:44.156Z,99460.63
2023-11-01T07:13:46.261Z,99455.72
2023-11-01T07:18:47.907Z,99457.56
2023-11-01T07:23:49.761Z,99458.06
2023-11-01T07:28:51.508Z,99449.78
2023-11-01T07:33:53.264Z,99445.28
2023-11-01T07:38:55.192Z,99444.06
2023-11-01T07:43:56.975Z,99440.81
2023-11-01T07:48:58.633Z,99438.09
2023-11-01T07:54:00.372Z,99433.44
2023-11-01T07:59:02.241Z,99436.75
2023-11-01T08:04:04.596Z,99434.50
2023-11-01T08:09:06.801Z,99431.91
2023-11-01T08:14:09.054Z,99431.94
2023-11-01T08:19:11.105Z,99428.44
2023-11-01T08:24:12.926Z,99431.38
2023-11-01T08:29:14.698Z,99437.44
2023-11-01T08:34:16.362Z,99447.06
2023-11-01T08:39:18.560Z,99427.69
2023-11-01T08:44:20.395Z,99424.84
2023-11-01T08:49:22.163Z,99419.50
2023-11-01T08:54:26.037Z,99417.56
2023-11-01T08:59:27.688Z,99416.53
2023-11-01T09:04:29.667Z,99411.41
2023-11-01T09:09:31.437Z,99407.75
2023-11-01T09:14:33.180Z,99406.19
2023-11-01T09:19:35.159Z,99400.69
2023-11-01T09:24:36.928Z,99400.28
2023-11-01T09:29:38.745Z,99401.28
2023-11-01T09:34:41.289Z,99395.75
2023-11-01T09:39:43.064Z,99394.13
2023-11-01T09:44:47.154Z,99386.88
2023-11-01T09:49:49.695Z,99390.25
2023-11-01T09:54:51.520Z,99392.16
2023-11-01T09:59:54.237Z,99381.84
2023-11-01T10:04:56.756Z,99379.66
2023-11-01T10:09:58.660Z,99370.44
2023-11-01T10:15:02.733Z,99369.81
2023-11-01T10:20:04.872Z,99367.03
2023-11-01T10:25:08.134Z,99362.44
2023-11-01T10:30:10.470Z,99361.03
2023-11-01T10:35:15.699Z,99355.00
2023-11-01T10:40:17.568Z,99347.91
2023-11-01T10:45:19.682Z,99340.41
2023-11-01T10:50:21.924Z,99337.13
2023-11-01T10:55:25.431Z,99329.41
2023-11-01T11:00:34.129Z,99323.13
2023-11-01T11:05:41.255Z,99323.56
2023-11-01T11:10:44.477Z,99309.75
2023-11-01T11:15:49.463Z,99309.13
2023-11-01T11:20:56.587Z,99288.38
2023-11-01T11:26:00.153Z,99284.84
2023-11-01T11:31:30.765Z,99286.94
2023-11-01T11:36:32.495Z,99281.28
2023-11-01T11:41:37.161Z,99281.28
2023-11-01T11:46:50.382Z,99261.84
2023-11-01T11:52:04.217Z,99261.22
2023-11-01T11:57:12.437Z,99257.66
2023-11-01T12:02:17.640Z,99252.19
2023-11-01T12:07:19.952Z,99252.78
2023-11-01T12:12:22.615Z,99235.16
2023-11-01T12:17:24.456Z,99230.53
2023-11-01T12:22:26.439Z,99237.03
2023-11-01T12:27:32.541Z,99222.53
2023-11-01T12:32:39.785Z,99218.53
2023-11-01T12:37:43.324Z,99216.03
2023-11-01T12:42:52.521Z,99213.97
2023-11-01T12:47:54.953Z,99211.91
2023-11-01T12:52:57.177Z,99206.75
2023-11-01T12:58:03.771Z,99203.22
2023-11-01T13:03:05.768Z,99202.81
2023-11-01T13:08:07.695Z,99195.06
2023-11-01T13:13:09.353Z,99202.81
2023-11-01T13:18:11.129Z,99200.31
2023-11-01T13:23:13.017Z,99194.66
2023-11-01T13:28:14.760Z,99195.50
2023-11-01T13:33:16.575Z,99194.44
2023-11-01T13:38:18.630Z,99188.38
2023-11-01T13:43:20.977Z,99183.38
2023-11-01T13:48:23.751Z,99180.06
2023-11-01T13:53:25.707Z,99184.88
2023-11-01T13:58:28.025Z,99184.91
2023-11-01T14:03:30.148Z,99188.25
2023-11-01T14:08:31.993Z,99179.00
2023-11-01T14:13:33.725Z,99173.38
2023-11-01T14:18:35.763Z,99171.09
2023-11-01T14:23:40.866Z,99171.50
2023-11-01T14:28:42.744Z,99166.69
2023-11-01T14:33:44.749Z,99167.31
2023-11-01T14:38:46.550Z,99165.03
2023-11-01T14:43:48.320Z,99153.75
2023-11-01T14:48:50.845Z,99149.75
2023-11-01T14:53:52.552Z,99152.19
2023-11-01T14:58:55.417Z,99146.34
2023-11-01T15:03:57.162Z,99133.38
2023-11-01T15:08:58.979Z,99136.28
2023-11-01T15:14:01.308Z,99132.28
2023-11-01T15:19:03.013Z,99114.31
2023-11-01T15:24:06.143Z,99112.63
2023-11-01T15:29:08.048Z,99109.47
2023-11-01T15:34:09.891Z,99109.84
2023-11-01T15:39:13.678Z,99108.56
2023-11-01T15:44:15.485Z,99098.06
2023-11-01T15:49:17.340Z,99105.13
2023-11-01T15:54:19.316Z,99098.22
2023-11-01T15:59:21.018Z,99100.25
2023-11-01T16:04:23.145Z,99093.38
2023-11-01T16:09:25.046Z,99102.09
2023-11-01T16:14:28.230Z,99100.38
2023-11-01T16:19:30.065Z,99093.59
2023-11-01T16:24:31.936Z,99086.28
2023-11-01T16:29:33.638Z,99092.50
2023-11-01T16:34:35.451Z,99095.59
2023-11-01T16:39:37.773Z,99094.97
2023-11-01T16:44:48.138Z,99092.00
2023-11-01T16:49:50.437Z,99095.91
2023-11-01T16:54:56.450Z,99086.06
2023-11-01T16:59:58.291Z,99092.72
2023-11-01T17:05:00.175Z,99093.31
2023-11-01T17:10:01.924Z,99097.88
2023-11-01T17:15:05.391Z,99104.25
2023-11-01T17:20:08.800Z,99099.88
2023-11-01T17:25:32.486Z,99095.09
2023-11-01T17:30:37.483Z,99090.91
2023-11-01T17:35:41.587Z,99087.75
2023-11-01T17:40:45.465Z,99081.44
2023-11-01T17:45:48.118Z,99081.41
2023-11-01T17:50:50.671Z,99082.63
2023-11-01T17:55:52.442Z,99078.19
2023-11-01T18:00:54.307Z,99074.19
2023-11-01T18:05:56.258Z,99075.38
2023-11-01T18:10:59.033Z,99071.56
2023-11-01T18:16:06.010Z,99064.66
2023-11-01T18:21:26.303Z,99051.22
2023-11-01T18:26:29.553Z,99040.78
2023-11-01T18:31:32.069Z,99038.78
2023-11-01T18:36:44.929Z,99026.91
2023-11-01T18:41:47.234Z,99036.25
2023-11-01T18:46:48.962Z,99042.81
2023-11-01T18:51:57.708Z,99034.97
2023-11-01T18:56:59.415Z,99035.06
2023-11-01T19:02:01.858Z,99045.16
2023-11-01T19:07:05.729Z,99044.19
2023-11-01T19:12:07.681Z,99046.53
2023-11-01T19:17:09.558Z,99054.47
2023-11-01T19:22:11.370Z,99050.22
2023-11-01T19:27:18.418Z,99041.91
2023-11-01T19:32:26.006Z,99044.03
2023-11-01T19:37:27.862Z,99042.44
2023-11-01T19:42:33.599Z,99031.91
2023-11-01T19:47:37.500Z,99031.44
2023-11-01T19:52:39.543Z,99028.75
2023-11-01T19:57:41.250Z,99025.22
2023-11-01T20:02:43.511Z,99027.25
2023-11-01T20:07:45.402Z,99018.63
2023-11-01T20:12:47.505Z,99031.41
2023-11-01T20:17:49.568Z,99033.84
2023-11-01T20:22:52.485Z,99033.75
2023-11-01T20:27:54.457Z,99027.03
2023-11-01T20:32:56.395Z,99018.28
2023-11-01T20:37:58.207Z,99001.72
2023-11-01T20:42:59.971Z,99009.06
2023-11-01T20:48:01.971Z,99002.06
2023-11-01T20:53:03.777Z,98997.97
2023-11-01T20:58:07.244Z,98999.00
2023-11-01T21:03:09.119Z,99005.63
2023-11-01T21:08:10.863Z,98998.66
2023-11-01T21:13:12.569Z,98997.88
2023-11-01T21:18:14.427Z,98993.06
2023-11-01T21:23:16.398Z,98980.97
2023-11-01T21:28:18.199Z,98963.91
2023-11-01T21:33:22.648Z,98962.69
2023-11-01T21:38:25.222Z,98947.34
2023-11-01T21:43:27.279Z,98935.53
2023-11-01T21:48:30.713Z,98943.25
2023-11-01T21:53:35.038Z,98933.28
2023-11-01T21:58:37.155Z,98925.09
2023-11-01T22:03:50.279Z,98923.38
2023-11-01T22:08:55.155Z,98913.03
2023-11-01T22:13:58.907Z,98897.47
2023-11-01T22:19:02.541Z,98901.19
2023-11-01T22:24:08.249Z,98923.25
2023-11-01T22:29:12.754Z,98939.66
2023-11-01T22:34:14.606Z,98933.34
2023-11-01T22:39:33.161Z,98920.22
2023-11-01T22:44:34.901Z,98911.22
2023-11-01T22:49:36.992Z,98905.69
2023-11-01T22:54:39.595Z,98891.78
2023-11-01T22:59:44.727Z,98897.25
2023-11-01T23:04:46.414Z,98873.41
2023-11-01T23:09:48.572Z,98869.66
2023-11-01T23:14:50.392Z,98856.16
2023-11-01T23:19:52.335Z,98857.19
2023-11-01T23:24:54.006Z,98858.63
2023-11-01T23:29:55.730Z,98844.66
2023-11-01T23:34:58.343Z,98842.94
2023-11-01T23:40:00.573Z,98831.88
2023-11-01T23:45:28.556Z,98836.16
2023-11-01T23:50:34.974Z,98825.94
2023-11-01T23:55:40.179Z,98821.09
